SAME/MDZ METAR and TAF weather

Enter ICAO airport designator
Station Type Date Time Source
SAME METAR 2019/06/18 12:00 UTC NOAA

SAME 181200Z 18003KT CAVOK 00/M04 Q1017


Station Type Date Time Source
SAME Decoded METAR 2019/06/18 12:00 UTC NOAA

Mendoza Aerodrome, Argentina (SAME) 32-50S 068-47W 704M
Jun 18, 2019 - 08:00 AM EDT / 2019.06.18 1200 UTC
Wind: from the S (180 degrees) at 3 MPH (3 KT):0
Visibility: greater than 7 mile(s):0
Temperature: 32 F (0 C)
Dew Point: 24 F (-4 C)
Relative Humidity: 74%
Pressure (altimeter): 30.03 in. Hg (1017 hPa)
ob: SAME 181200Z 18003KT CAVOK 00/M04 Q1017
cycle: 12

Station Type Date Time Source
SAME TAF 2019/06/18 12:09 UTC NOAA

TAF TAF SAME 181100Z 1812/1912 20005KT CAVOK TX16/1820Z TN01/1911Z
BECMG 1814/1816 05005KT
BECMG 1902/1904 20005KT

Example: see airport list